Cap-Rouge, Canada
Current Conditions -  °F | °C
As of 1:00 PM on Thursday 29 Jan 2015 (Local Time) from CYQB Reporting Station
Broken Clouds Broken Clouds  
Wind Chill: 16°   Ceiling: 25000
Heat Index: 16°   Visibility: 20mi
Dew Point:   Wind: 2mph
Humidity: 49%   Direction: 320°NW
Pressure: 30.18"   Gusts: NA
Location:  46.75°N, 71.35°W
Report Text: CYQB 291800Z 32002KT 20SM BKN250 M09/M18 A3018 RMK CI7 SLP226
Loading
Personal Weather Stations






























Interactive Weather Map New forecast layout! Learn more

10-Day Weather Forecast

Advertisements
Track Severe Weather on mobile